sensor_id;sensor_type;location;lat;lon;timestamp;temperature;humidity
42867;DHT22;39461;40.948;73.006;2022-07-29T00:02:20;27.50;90.90
42867;DHT22;39461;40.948;73.006;2022-07-29T00:04:53;27.40;91.40
42867;DHT22;39461;40.948;73.006;2022-07-29T00:07:26;27.40;91.90
42867;DHT22;39461;40.948;73.006;2022-07-29T00:10:04;27.30;92.40
42867;DHT22;39461;40.948;73.006;2022-07-29T00:12:37;27.20;92.90
42867;DHT22;39461;40.948;73.006;2022-07-29T00:15:10;27.20;93.40
42867;DHT22;39461;40.948;73.006;2022-07-29T00:17:43;27.20;93.30
42867;DHT22;39461;40.948;73.006;2022-07-29T00:20:16;27.30;92.80
42867;DHT22;39461;40.948;73.006;2022-07-29T00:22:55;27.20;92.80
42867;DHT22;39461;40.948;73.006;2022-07-29T00:25:28;27.10;92.80
42867;DHT22;39461;40.948;73.006;2022-07-29T00:28:01;27.10;92.50
42867;DHT22;39461;40.948;73.006;2022-07-29T00:30:34;27.10;92.30
42867;DHT22;39461;40.948;73.006;2022-07-29T00:33:13;27.20;91.80
42867;DHT22;39461;40.948;73.006;2022-07-29T00:35:46;27.10;91.90
42867;DHT22;39461;40.948;73.006;2022-07-29T00:38:20;27.10;92.10
42867;DHT22;39461;40.948;73.006;2022-07-29T00:40:53;27.10;92.20
42867;DHT22;39461;40.948;73.006;2022-07-29T00:43:32;27.10;91.80
42867;DHT22;39461;40.948;73.006;2022-07-29T00:46:05;27.20;91.50
42867;DHT22;39461;40.948;73.006;2022-07-29T00:48:38;27.20;90.60
42867;DHT22;39461;40.948;73.006;2022-07-29T00:51:11;27.30;90.50
42867;DHT22;39461;40.948;73.006;2022-07-29T00:53:46;27.30;90.10
42867;DHT22;39461;40.948;73.006;2022-07-29T00:56:23;27.30;89.80
42867;DHT22;39461;40.948;73.006;2022-07-29T00:58:50;27.40;89.40
42867;DHT22;39461;40.948;73.006;2022-07-29T01:01:24;27.40;89.00
42867;DHT22;39461;40.948;73.006;2022-07-29T01:03:57;27.40;88.90
42867;DHT22;39461;40.948;73.006;2022-07-29T01:06:30;27.40;88.40
42867;DHT22;39461;40.948;73.006;2022-07-29T01:09:03;27.40;88.80
42867;DHT22;39461;40.948;73.006;2022-07-29T01:11:37;27.40;89.70
42867;DHT22;39461;40.948;73.006;2022-07-29T01:14:10;27.30;90.20
42867;DHT22;39461;40.948;73.006;2022-07-29T01:20:06;27.40;92.00
42867;DHT22;39461;40.948;73.006;2022-07-29T01:28:47;27.40;93.30
42867;DHT22;39461;40.948;73.006;2022-07-29T01:31:54;27.40;93.20
42867;DHT22;39461;40.948;73.006;2022-07-29T01:37:15;27.40;93.00
42867;DHT22;39461;40.948;73.006;2022-07-29T01:39:53;27.40;92.40
42867;DHT22;39461;40.948;73.006;2022-07-29T01:42:43;27.50;92.40
42867;DHT22;39461;40.948;73.006;2022-07-29T01:45:26;27.50;91.70
42867;DHT22;39461;40.948;73.006;2022-07-29T01:50:54;27.40;91.80
42867;DHT22;39461;40.948;73.006;2022-07-29T01:53:35;27.40;91.60
42867;DHT22;39461;40.948;73.006;2022-07-29T01:56:13;27.40;91.60
42867;DHT22;39461;40.948;73.006;2022-07-29T01:59:13;27.40;91.80
42867;DHT22;39461;40.948;73.006;2022-07-29T02:01:50;27.40;91.80
42867;DHT22;39461;40.948;73.006;2022-07-29T02:04:27;27.50;91.30
42867;DHT22;39461;40.948;73.006;2022-07-29T02:07:07;27.60;90.80
42867;DHT22;39461;40.948;73.006;2022-07-29T02:09:44;27.50;91.10
42867;DHT22;39461;40.948;73.006;2022-07-29T02:12:19;27.50;91.00
42867;DHT22;39461;40.948;73.006;2022-07-29T02:14:57;27.50;90.90
42867;DHT22;39461;40.948;73.006;2022-07-29T02:17:41;27.50;91.20
42867;DHT22;39461;40.948;73.006;2022-07-29T02:20:17;27.50;90.70
42867;DHT22;39461;40.948;73.006;2022-07-29T02:22:57;27.60;90.60
42867;DHT22;39461;40.948;73.006;2022-07-29T02:25:32;27.80;90.20
42867;DHT22;39461;40.948;73.006;2022-07-29T02:28:12;27.90;89.40
42867;DHT22;39461;40.948;73.006;2022-07-29T02:30:48;27.90;90.20
42867;DHT22;39461;40.948;73.006;2022-07-29T02:33:25;27.90;90.00
42867;DHT22;39461;40.948;73.006;2022-07-29T02:36:24;28.00;88.00
42867;DHT22;39461;40.948;73.006;2022-07-29T02:39:00;28.10;87.30
42867;DHT22;39461;40.948;73.006;2022-07-29T02:42:01;28.20;86.20
42867;DHT22;39461;40.948;73.006;2022-07-29T02:44:32;28.30;86.40
42867;DHT22;39461;40.948;73.006;2022-07-29T02:47:20;28.30;86.10
42867;DHT22;39461;40.948;73.006;2022-07-29T02:52:57;28.40;84.60
42867;DHT22;39461;40.948;73.006;2022-07-29T02:58:29;28.60;82.20
42867;DHT22;39461;40.948;73.006;2022-07-29T03:01:13;28.70;82.20
42867;DHT22;39461;40.948;73.006;2022-07-29T03:03:49;28.80;80.80
42867;DHT22;39461;40.948;73.006;2022-07-29T03:06:25;29.00;82.00
42867;DHT22;39461;40.948;73.006;2022-07-29T03:09:01;29.40;79.60
42867;DHT22;39461;40.948;73.006;2022-07-29T03:11:41;29.50;75.00
42867;DHT22;39461;40.948;73.006;2022-07-29T03:14:20;29.60;72.50
42867;DHT22;39461;40.948;73.006;2022-07-29T03:16:57;29.60;69.70
42867;DHT22;39461;40.948;73.006;2022-07-29T03:19:33;29.70;68.00
42867;DHT22;39461;40.948;73.006;2022-07-29T03:22:06;29.80;66.90
42867;DHT22;39461;40.948;73.006;2022-07-29T03:24:36;29.90;67.40
42867;DHT22;39461;40.948;73.006;2022-07-29T03:27:13;29.90;67.20
42867;DHT22;39461;40.948;73.006;2022-07-29T03:29:48;30.10;65.30
42867;DHT22;39461;40.948;73.006;2022-07-29T03:32:23;30.30;64.00
42867;DHT22;39461;40.948;73.006;2022-07-29T03:34:56;30.30;62.40
42867;DHT22;39461;40.948;73.006;2022-07-29T03:37:29;30.50;63.80
42867;DHT22;39461;40.948;73.006;2022-07-29T03:40:08;30.70;62.90
42867;DHT22;39461;40.948;73.006;2022-07-29T03:42:44;30.90;60.90
42867;DHT22;39461;40.948;73.006;2022-07-29T03:45:44;31.10;58.70
42867;DHT22;39461;40.948;73.006;2022-07-29T03:48:22;31.30;60.40
42867;DHT22;39461;40.948;73.006;2022-07-29T03:50:50;31.30;60.60
42867;DHT22;39461;40.948;73.006;2022-07-29T03:53:24;31.40;60.10
42867;DHT22;39461;40.948;73.006;2022-07-29T03:56:02;31.40;59.20
42867;DHT22;39461;40.948;73.006;2022-07-29T03:58:37;31.40;59.60
42867;DHT22;39461;40.948;73.006;2022-07-29T04:01:14;31.30;60.70
42867;DHT22;39461;40.948;73.006;2022-07-29T04:03:52;31.20;59.70
42867;DHT22;39461;40.948;73.006;2022-07-29T04:06:25;31.10;59.00
42867;DHT22;39461;40.948;73.006;2022-07-29T04:08:58;31.10;59.60
42867;DHT22;39461;40.948;73.006;2022-07-29T04:11:33;31.20;56.60
42867;DHT22;39461;40.948;73.006;2022-07-29T04:14:06;31.40;56.80
42867;DHT22;39461;40.948;73.006;2022-07-29T04:16:39;31.70;57.30
42867;DHT22;39461;40.948;73.006;2022-07-29T04:19:14;31.70;55.00
42867;DHT22;39461;40.948;73.006;2022-07-29T04:21:41;31.90;54.40
42867;DHT22;39461;40.948;73.006;2022-07-29T04:24:15;32.00;54.30
42867;DHT22;39461;40.948;73.006;2022-07-29T04:26:48;32.00;54.10
42867;DHT22;39461;40.948;73.006;2022-07-29T04:29:23;32.10;57.00
42867;DHT22;39461;40.948;73.006;2022-07-29T04:31:58;32.30;53.20
42867;DHT22;39461;40.948;73.006;2022-07-29T04:34:31;32.40;55.40
42867;DHT22;39461;40.948;73.006;2022-07-29T04:37:08;32.50;55.10
42867;DHT22;39461;40.948;73.006;2022-07-29T04:39:43;32.70;54.90
42867;DHT22;39461;40.948;73.006;2022-07-29T04:42:09;32.70;53.60
42867;DHT22;39461;40.948;73.006;2022-07-29T04:44:48;32.60;51.90
42867;DHT22;39461;40.948;73.006;2022-07-29T04:47:23;32.30;51.50
42867;DHT22;39461;40.948;73.006;2022-07-29T04:49:58;32.40;52.60
42867;DHT22;39461;40.948;73.006;2022-07-29T04:52:56;32.40;51.50
42867;DHT22;39461;40.948;73.006;2022-07-29T04:55:32;32.50;51.30
42867;DHT22;39461;40.948;73.006;2022-07-29T04:57:59;32.60;51.00
42867;DHT22;39461;40.948;73.006;2022-07-29T05:00:28;32.60;50.60
42867;DHT22;39461;40.948;73.006;2022-07-29T05:03:07;32.50;50.80
42867;DHT22;39461;40.948;73.006;2022-07-29T05:05:40;32.30;51.40
42867;DHT22;39461;40.948;73.006;2022-07-29T05:08:14;32.20;52.00
42867;DHT22;39461;40.948;73.006;2022-07-29T05:10:53;32.20;51.20
42867;DHT22;39461;40.948;73.006;2022-07-29T05:13:27;32.10;51.20
42867;DHT22;39461;40.948;73.006;2022-07-29T05:16:03;32.10;50.90
42867;DHT22;39461;40.948;73.006;2022-07-29T05:18:38;32.30;51.00
42867;DHT22;39461;40.948;73.006;2022-07-29T05:21:11;32.60;50.60
42867;DHT22;39461;40.948;73.006;2022-07-29T05:23:46;32.50;50.30
42867;DHT22;39461;40.948;73.006;2022-07-29T05:26:20;32.30;50.50
42867;DHT22;39461;40.948;73.006;2022-07-29T05:29:02;32.40;50.50
42867;DHT22;39461;40.948;73.006;2022-07-29T05:31:40;32.70;51.00
42867;DHT22;39461;40.948;73.006;2022-07-29T05:34:13;32.70;52.50
42867;DHT22;39461;40.948;73.006;2022-07-29T05:36:48;32.60;51.80
42867;DHT22;39461;40.948;73.006;2022-07-29T05:39:32;32.60;52.00
42867;DHT22;39461;40.948;73.006;2022-07-29T05:42:13;32.80;51.80
42867;DHT22;39461;40.948;73.006;2022-07-29T05:44:46;32.70;51.50
42867;DHT22;39461;40.948;73.006;2022-07-29T05:47:30;32.60;50.80
42867;DHT22;39461;40.948;73.006;2022-07-29T05:49:59;32.40;50.70
42867;DHT22;39461;40.948;73.006;2022-07-29T05:52:37;32.50;50.90
42867;DHT22;39461;40.948;73.006;2022-07-29T05:55:14;32.60;50.80
42867;DHT22;39461;40.948;73.006;2022-07-29T05:57:51;32.50;51.20
42867;DHT22;39461;40.948;73.006;2022-07-29T06:00:28;32.50;51.30
42867;DHT22;39461;40.948;73.006;2022-07-29T06:03:39;32.50;51.40
42867;DHT22;39461;40.948;73.006;2022-07-29T06:06:21;32.60;50.80
42867;DHT22;39461;40.948;73.006;2022-07-29T06:08:55;32.70;50.30
42867;DHT22;39461;40.948;73.006;2022-07-29T06:11:36;32.70;50.50
42867;DHT22;39461;40.948;73.006;2022-07-29T06:14:34;32.70;50.60
42867;DHT22;39461;40.948;73.006;2022-07-29T06:17:15;32.40;50.40
42867;DHT22;39461;40.948;73.006;2022-07-29T06:19:53;32.20;51.20
42867;DHT22;39461;40.948;73.006;2022-07-29T06:22:33;32.10;51.30
42867;DHT22;39461;40.948;73.006;2022-07-29T06:25:07;32.10;51.60
42867;DHT22;39461;40.948;73.006;2022-07-29T06:27:48;32.20;52.20
42867;DHT22;39461;40.948;73.006;2022-07-29T06:30:29;32.40;51.50
42867;DHT22;39461;40.948;73.006;2022-07-29T06:33:19;32.40;51.70
42867;DHT22;39461;40.948;73.006;2022-07-29T06:36:28;32.20;51.80
42867;DHT22;39461;40.948;73.006;2022-07-29T06:39:17;32.20;51.80
42867;DHT22;39461;40.948;73.006;2022-07-29T06:42:06;32.20;50.40
42867;DHT22;39461;40.948;73.006;2022-07-29T06:44:56;32.40;49.50
42867;DHT22;39461;40.948;73.006;2022-07-29T06:47:34;32.50;50.60
42867;DHT22;39461;40.948;73.006;2022-07-29T06:50:05;32.70;50.60
42867;DHT22;39461;40.948;73.006;2022-07-29T06:52:53;32.60;50.90
42867;DHT22;39461;40.948;73.006;2022-07-29T06:55:36;32.70;50.70
42867;DHT22;39461;40.948;73.006;2022-07-29T06:58:15;32.70;50.40
42867;DHT22;39461;40.948;73.006;2022-07-29T07:00:58;32.60;50.20
42867;DHT22;39461;40.948;73.006;2022-07-29T07:03:55;32.40;51.20
42867;DHT22;39461;40.948;73.006;2022-07-29T07:06:34;32.70;52.40
42867;DHT22;39461;40.948;73.006;2022-07-29T07:09:17;32.60;52.00
42867;DHT22;39461;40.948;73.006;2022-07-29T07:11:56;32.50;51.90
42867;DHT22;39461;40.948;73.006;2022-07-29T07:14:36;32.60;52.30
42867;DHT22;39461;40.948;73.006;2022-07-29T07:17:38;32.60;51.90
42867;DHT22;39461;40.948;73.006;2022-07-29T07:20:21;32.60;51.90
42867;DHT22;39461;40.948;73.006;2022-07-29T07:23:01;32.50;52.00
42867;DHT22;39461;40.948;73.006;2022-07-29T07:25:44;32.70;52.00
42867;DHT22;39461;40.948;73.006;2022-07-29T07:28:44;32.80;51.70
42867;DHT22;39461;40.948;73.006;2022-07-29T07:31:28;32.90;51.50
42867;DHT22;39461;40.948;73.006;2022-07-29T07:34:53;33.10;50.40
42867;DHT22;39461;40.948;73.006;2022-07-29T07:37:48;32.90;51.30
42867;DHT22;39461;40.948;73.006;2022-07-29T07:40:37;32.90;50.80
42867;DHT22;39461;40.948;73.006;2022-07-29T07:43:27;33.10;51.30
42867;DHT22;39461;40.948;73.006;2022-07-29T07:46:20;33.40;51.50
42867;DHT22;39461;40.948;73.006;2022-07-29T07:49:07;33.40;51.10
42867;DHT22;39461;40.948;73.006;2022-07-29T07:51:56;33.40;51.40
42867;DHT22;39461;40.948;73.006;2022-07-29T07:54:31;33.40;52.30
42867;DHT22;39461;40.948;73.006;2022-07-29T07:57:09;33.10;50.70
42867;DHT22;39461;40.948;73.006;2022-07-29T07:59:58;33.00;51.80
42867;DHT22;39461;40.948;73.006;2022-07-29T08:02:50;33.10;52.20
42867;DHT22;39461;40.948;73.006;2022-07-29T08:05:41;33.10;52.10
42867;DHT22;39461;40.948;73.006;2022-07-29T08:08:38;33.10;51.10
42867;DHT22;39461;40.948;73.006;2022-07-29T08:11:14;32.90;52.20
42867;DHT22;39461;40.948;73.006;2022-07-29T08:14:19;32.80;52.60
42867;DHT22;39461;40.948;73.006;2022-07-29T08:17:04;32.70;52.50
42867;DHT22;39461;40.948;73.006;2022-07-29T08:19:46;32.60;52.90
42867;DHT22;39461;40.948;73.006;2022-07-29T08:22:27;32.70;52.10
42867;DHT22;39461;40.948;73.006;2022-07-29T08:24:58;32.90;52.30
42867;DHT22;39461;40.948;73.006;2022-07-29T08:27:41;32.90;52.20
42867;DHT22;39461;40.948;73.006;2022-07-29T08:30:40;32.90;51.50
42867;DHT22;39461;40.948;73.006;2022-07-29T08:33:25;33.10;51.20
42867;DHT22;39461;40.948;73.006;2022-07-29T08:36:13;33.30;52.40
42867;DHT22;39461;40.948;73.006;2022-07-29T08:39:03;33.30;52.20
42867;DHT22;39461;40.948;73.006;2022-07-29T08:42:05;33.30;51.70
42867;DHT22;39461;40.948;73.006;2022-07-29T08:45:19;33.00;51.40
42867;DHT22;39461;40.948;73.006;2022-07-29T08:48:22;33.10;52.00
42867;DHT22;39461;40.948;73.006;2022-07-29T08:51:41;33.10;52.10
42867;DHT22;39461;40.948;73.006;2022-07-29T08:54:53;32.90;51.90
42867;DHT22;39461;40.948;73.006;2022-07-29T08:57:48;32.80;51.40
42867;DHT22;39461;40.948;73.006;2022-07-29T09:01:07;32.80;51.50
42867;DHT22;39461;40.948;73.006;2022-07-29T09:03:56;32.80;51.80
42867;DHT22;39461;40.948;73.006;2022-07-29T09:06:52;32.70;51.70
42867;DHT22;39461;40.948;73.006;2022-07-29T09:09:47;32.70;52.20
42867;DHT22;39461;40.948;73.006;2022-07-29T09:12:23;32.80;51.80
42867;DHT22;39461;40.948;73.006;2022-07-29T09:15:20;32.80;52.20
42867;DHT22;39461;40.948;73.006;2022-07-29T09:18:02;32.90;51.30
42867;DHT22;39461;40.948;73.006;2022-07-29T09:20:58;33.10;51.10
42867;DHT22;39461;40.948;73.006;2022-07-29T09:24:19;33.30;51.00
42867;DHT22;39461;40.948;73.006;2022-07-29T09:27:08;33.40;50.80
42867;DHT22;39461;40.948;73.006;2022-07-29T09:30:20;33.20;51.10
42867;DHT22;39461;40.948;73.006;2022-07-29T09:33:38;33.20;50.90
42867;DHT22;39461;40.948;73.006;2022-07-29T09:39:50;33.00;50.90
42867;DHT22;39461;40.948;73.006;2022-07-29T09:42:40;33.30;50.30
42867;DHT22;39461;40.948;73.006;2022-07-29T09:45:48;33.30;50.20
42867;DHT22;39461;40.948;73.006;2022-07-29T09:48:35;33.50;49.20
42867;DHT22;39461;40.948;73.006;2022-07-29T09:51:31;33.60;48.40
42867;DHT22;39461;40.948;73.006;2022-07-29T09:54:36;33.60;48.70
42867;DHT22;39461;40.948;73.006;2022-07-29T09:57:39;33.70;47.70
42867;DHT22;39461;40.948;73.006;2022-07-29T10:00:49;33.60;48.40
42867;DHT22;39461;40.948;73.006;2022-07-29T10:03:59;33.60;49.50
42867;DHT22;39461;40.948;73.006;2022-07-29T10:07:05;33.60;49.10
42867;DHT22;39461;40.948;73.006;2022-07-29T10:10:00;33.70;48.80
42867;DHT22;39461;40.948;73.006;2022-07-29T10:15:56;33.70;50.00
42867;DHT22;39461;40.948;73.006;2022-07-29T10:19:03;33.60;50.10
42867;DHT22;39461;40.948;73.006;2022-07-29T10:22:06;33.60;51.00
42867;DHT22;39461;40.948;73.006;2022-07-29T10:24:57;33.50;50.90
42867;DHT22;39461;40.948;73.006;2022-07-29T10:28:06;33.60;50.60
42867;DHT22;39461;40.948;73.006;2022-07-29T10:30:50;33.80;50.40
42867;DHT22;39461;40.948;73.006;2022-07-29T10:34:23;33.90;50.90
42867;DHT22;39461;40.948;73.006;2022-07-29T10:40:35;33.90;49.90
42867;DHT22;39461;40.948;73.006;2022-07-29T10:44:01;33.90;49.70
42867;DHT22;39461;40.948;73.006;2022-07-29T10:46:57;34.00;49.80
42867;DHT22;39461;40.948;73.006;2022-07-29T10:49:36;34.00;49.90
42867;DHT22;39461;40.948;73.006;2022-07-29T10:55:34;33.90;49.80
42867;DHT22;39461;40.948;73.006;2022-07-29T10:58:22;34.00;50.20
42867;DHT22;39461;40.948;73.006;2022-07-29T11:01:33;34.00;50.80
42867;DHT22;39461;40.948;73.006;2022-07-29T11:04:14;33.90;51.40
42867;DHT22;39461;40.948;73.006;2022-07-29T11:07:13;33.80;51.40
42867;DHT22;39461;40.948;73.006;2022-07-29T11:13:04;33.70;51.60
42867;DHT22;39461;40.948;73.006;2022-07-29T11:16:06;33.70;52.30
42867;DHT22;39461;40.948;73.006;2022-07-29T11:21:59;33.70;52.10
42867;DHT22;39461;40.948;73.006;2022-07-29T11:25:15;33.60;51.70
42867;DHT22;39461;40.948;73.006;2022-07-29T11:28:16;33.60;51.80
42867;DHT22;39461;40.948;73.006;2022-07-29T11:34:31;33.70;50.50
42867;DHT22;39461;40.948;73.006;2022-07-29T11:42:56;33.80;49.70
42867;DHT22;39461;40.948;73.006;2022-07-29T11:45:55;33.80;48.90
42867;DHT22;39461;40.948;73.006;2022-07-29T11:48:44;33.70;49.10
42867;DHT22;39461;40.948;73.006;2022-07-29T11:51:30;33.70;48.80
42867;DHT22;39461;40.948;73.006;2022-07-29T11:54:16;33.70;48.80
42867;DHT22;39461;40.948;73.006;2022-07-29T11:57:19;33.80;49.50
42867;DHT22;39461;40.948;73.006;2022-07-29T12:00:12;33.80;49.10
42867;DHT22;39461;40.948;73.006;2022-07-29T12:03:09;33.90;48.70
42867;DHT22;39461;40.948;73.006;2022-07-29T12:06:12;33.70;48.60
42867;DHT22;39461;40.948;73.006;2022-07-29T12:08:56;33.80;48.90
42867;DHT22;39461;40.948;73.006;2022-07-29T12:11:32;33.70;48.90
42867;DHT22;39461;40.948;73.006;2022-07-29T12:14:32;33.50;48.80
42867;DHT22;39461;40.948;73.006;2022-07-29T12:17:34;33.40;49.00
42867;DHT22;39461;40.948;73.006;2022-07-29T12:20:27;33.30;48.60
42867;DHT22;39461;40.948;73.006;2022-07-29T12:23:11;33.40;49.00
42867;DHT22;39461;40.948;73.006;2022-07-29T12:25:58;33.40;48.70
42867;DHT22;39461;40.948;73.006;2022-07-29T12:28:40;33.40;49.30
42867;DHT22;39461;40.948;73.006;2022-07-29T12:31:21;33.50;49.90
42867;DHT22;39461;40.948;73.006;2022-07-29T12:34:06;33.30;48.90
42867;DHT22;39461;40.948;73.006;2022-07-29T12:36:50;33.30;49.50
42867;DHT22;39461;40.948;73.006;2022-07-29T12:39:26;33.40;49.20
42867;DHT22;39461;40.948;73.006;2022-07-29T12:42:10;33.30;49.30
42867;DHT22;39461;40.948;73.006;2022-07-29T12:44:48;33.10;49.20
42867;DHT22;39461;40.948;73.006;2022-07-29T12:47:24;33.00;49.50
42867;DHT22;39461;40.948;73.006;2022-07-29T12:50:27;33.00;49.50
42867;DHT22;39461;40.948;73.006;2022-07-29T12:53:14;32.90;49.90
42867;DHT22;39461;40.948;73.006;2022-07-29T12:55:53;32.90;49.60
42867;DHT22;39461;40.948;73.006;2022-07-29T12:58:37;32.90;49.90
42867;DHT22;39461;40.948;73.006;2022-07-29T13:01:17;32.90;50.90
42867;DHT22;39461;40.948;73.006;2022-07-29T13:03:58;32.90;49.90
42867;DHT22;39461;40.948;73.006;2022-07-29T13:06:47;32.80;49.40
42867;DHT22;39461;40.948;73.006;2022-07-29T13:09:35;32.70;49.70
42867;DHT22;39461;40.948;73.006;2022-07-29T13:12:14;32.70;49.80
42867;DHT22;39461;40.948;73.006;2022-07-29T13:14:49;32.60;50.00
42867;DHT22;39461;40.948;73.006;2022-07-29T13:17:44;32.50;50.10
42867;DHT22;39461;40.948;73.006;2022-07-29T13:20:35;32.40;50.10
42867;DHT22;39461;40.948;73.006;2022-07-29T13:23:30;32.30;50.80
42867;DHT22;39461;40.948;73.006;2022-07-29T13:26:18;32.30;50.90
42867;DHT22;39461;40.948;73.006;2022-07-29T13:29:11;32.30;51.40
42867;DHT22;39461;40.948;73.006;2022-07-29T13:32:08;32.30;51.20
42867;DHT22;39461;40.948;73.006;2022-07-29T13:35:02;32.30;51.40
42867;DHT22;39461;40.948;73.006;2022-07-29T13:38:03;32.30;51.20
42867;DHT22;39461;40.948;73.006;2022-07-29T13:40:58;32.30;51.30
42867;DHT22;39461;40.948;73.006;2022-07-29T13:43:38;32.20;51.80
42867;DHT22;39461;40.948;73.006;2022-07-29T13:46:23;32.20;51.40
42867;DHT22;39461;40.948;73.006;2022-07-29T13:48:53;32.20;51.30
42867;DHT22;39461;40.948;73.006;2022-07-29T13:51:42;32.20;51.50
42867;DHT22;39461;40.948;73.006;2022-07-29T13:54:17;32.10;51.70
42867;DHT22;39461;40.948;73.006;2022-07-29T13:57:00;32.10;51.50
42867;DHT22;39461;40.948;73.006;2022-07-29T13:59:43;32.10;52.20
42867;DHT22;39461;40.948;73.006;2022-07-29T14:02:32;32.10;51.40
42867;DHT22;39461;40.948;73.006;2022-07-29T14:05:23;32.00;51.20
42867;DHT22;39461;40.948;73.006;2022-07-29T14:08:25;32.10;51.40
42867;DHT22;39461;40.948;73.006;2022-07-29T14:11:04;32.00;50.90
42867;DHT22;39461;40.948;73.006;2022-07-29T14:14:00;31.90;52.70
42867;DHT22;39461;40.948;73.006;2022-07-29T14:16:59;31.90;51.80
42867;DHT22;39461;40.948;73.006;2022-07-29T14:19:40;31.90;52.80
42867;DHT22;39461;40.948;73.006;2022-07-29T14:22:31;31.90;53.80
42867;DHT22;39461;40.948;73.006;2022-07-29T14:25:26;31.80;53.80
42867;DHT22;39461;40.948;73.006;2022-07-29T14:28:14;31.70;53.80
42867;DHT22;39461;40.948;73.006;2022-07-29T14:30:56;31.60;54.90
42867;DHT22;39461;40.948;73.006;2022-07-29T14:33:34;31.50;54.70
42867;DHT22;39461;40.948;73.006;2022-07-29T14:36:23;31.50;55.50
42867;DHT22;39461;40.948;73.006;2022-07-29T14:39:21;31.50;54.70
42867;DHT22;39461;40.948;73.006;2022-07-29T14:42:14;31.30;54.40
42867;DHT22;39461;40.948;73.006;2022-07-29T14:45:25;31.30;54.00
42867;DHT22;39461;40.948;73.006;2022-07-29T14:48:19;31.20;54.40
42867;DHT22;39461;40.948;73.006;2022-07-29T14:51:06;31.20;54.20
42867;DHT22;39461;40.948;73.006;2022-07-29T14:54:07;31.10;54.80
42867;DHT22;39461;40.948;73.006;2022-07-29T14:56:56;31.00;55.30
42867;DHT22;39461;40.948;73.006;2022-07-29T14:59:45;30.90;55.80
42867;DHT22;39461;40.948;73.006;2022-07-29T15:02:30;30.70;56.40
42867;DHT22;39461;40.948;73.006;2022-07-29T15:05:19;30.60;57.10
42867;DHT22;39461;40.948;73.006;2022-07-29T15:07:59;30.50;57.10
42867;DHT22;39461;40.948;73.006;2022-07-29T15:10:53;30.40;57.20
42867;DHT22;39461;40.948;73.006;2022-07-29T15:13:46;30.40;57.60
42867;DHT22;39461;40.948;73.006;2022-07-29T15:16:37;30.30;57.60
42867;DHT22;39461;40.948;73.006;2022-07-29T15:19:23;30.30;57.80
42867;DHT22;39461;40.948;73.006;2022-07-29T15:22:07;30.30;58.10
42867;DHT22;39461;40.948;73.006;2022-07-29T15:24:53;30.30;58.50
42867;DHT22;39461;40.948;73.006;2022-07-29T15:27:28;30.30;58.60
42867;DHT22;39461;40.948;73.006;2022-07-29T15:30:03;30.20;59.20
42867;DHT22;39461;40.948;73.006;2022-07-29T15:32:55;30.10;59.70
42867;DHT22;39461;40.948;73.006;2022-07-29T15:35:42;30.00;59.70
42867;DHT22;39461;40.948;73.006;2022-07-29T15:38:21;30.00;59.40
42867;DHT22;39461;40.948;73.006;2022-07-29T15:41:04;30.00;59.00
42867;DHT22;39461;40.948;73.006;2022-07-29T15:43:55;29.90;58.90
42867;DHT22;39461;40.948;73.006;2022-07-29T15:46:50;29.90;59.20
42867;DHT22;39461;40.948;73.006;2022-07-29T15:49:36;29.80;59.30
42867;DHT22;39461;40.948;73.006;2022-07-29T15:52:28;29.70;59.40
42867;DHT22;39461;40.948;73.006;2022-07-29T15:55:25;29.70;60.30
42867;DHT22;39461;40.948;73.006;2022-07-29T15:58:16;29.60;61.00
42867;DHT22;39461;40.948;73.006;2022-07-29T16:00:58;29.60;62.60
42867;DHT22;39461;40.948;73.006;2022-07-29T16:03:43;29.40;62.50
42867;DHT22;39461;40.948;73.006;2022-07-29T16:06:29;29.20;62.40
42867;DHT22;39461;40.948;73.006;2022-07-29T16:09:35;29.10;63.00
42867;DHT22;39461;40.948;73.006;2022-07-29T16:12:33;29.00;63.80
42867;DHT22;39461;40.948;73.006;2022-07-29T16:15:32;28.90;63.70
42867;DHT22;39461;40.948;73.006;2022-07-29T16:18:22;28.70;63.50
42867;DHT22;39461;40.948;73.006;2022-07-29T16:21:15;28.70;64.00
42867;DHT22;39461;40.948;73.006;2022-07-29T16:24:02;28.70;62.50
42867;DHT22;39461;40.948;73.006;2022-07-29T16:26:59;28.50;62.40
42867;DHT22;39461;40.948;73.006;2022-07-29T16:30:07;28.40;61.90
42867;DHT22;39461;40.948;73.006;2022-07-29T16:32:57;28.30;61.50
42867;DHT22;39461;40.948;73.006;2022-07-29T16:35:55;28.30;61.60
42867;DHT22;39461;40.948;73.006;2022-07-29T16:38:57;28.10;61.30
42867;DHT22;39461;40.948;73.006;2022-07-29T16:41:49;28.10;61.30
42867;DHT22;39461;40.948;73.006;2022-07-29T16:44:28;28.10;61.30
42867;DHT22;39461;40.948;73.006;2022-07-29T16:47:12;28.00;61.30
42867;DHT22;39461;40.948;73.006;2022-07-29T16:50:10;28.00;61.10
42867;DHT22;39461;40.948;73.006;2022-07-29T16:53:06;28.00;61.20
42867;DHT22;39461;40.948;73.006;2022-07-29T16:55:51;27.90;61.10
42867;DHT22;39461;40.948;73.006;2022-07-29T16:58:39;27.80;61.00
42867;DHT22;39461;40.948;73.006;2022-07-29T17:01:25;27.70;61.10
42867;DHT22;39461;40.948;73.006;2022-07-29T17:04:10;27.70;61.40
42867;DHT22;39461;40.948;73.006;2022-07-29T17:07:05;27.70;61.10
42867;DHT22;39461;40.948;73.006;2022-07-29T17:09:58;27.60;61.20
42867;DHT22;39461;40.948;73.006;2022-07-29T17:12:43;27.60;61.40
42867;DHT22;39461;40.948;73.006;2022-07-29T17:15:29;27.50;61.10
42867;DHT22;39461;40.948;73.006;2022-07-29T17:18:20;27.50;61.30
42867;DHT22;39461;40.948;73.006;2022-07-29T17:21:14;27.50;60.90
42867;DHT22;39461;40.948;73.006;2022-07-29T17:24:10;27.50;61.00
42867;DHT22;39461;40.948;73.006;2022-07-29T17:26:56;27.40;61.10
42867;DHT22;39461;40.948;73.006;2022-07-29T17:29:51;27.30;61.10
42867;DHT22;39461;40.948;73.006;2022-07-29T17:32:32;27.30;60.90
42867;DHT22;39461;40.948;73.006;2022-07-29T17:35:20;27.20;60.90
42867;DHT22;39461;40.948;73.006;2022-07-29T17:38:19;27.30;61.00
42867;DHT22;39461;40.948;73.006;2022-07-29T17:40:57;27.10;61.00
42867;DHT22;39461;40.948;73.006;2022-07-29T17:43:49;27.10;61.00
42867;DHT22;39461;40.948;73.006;2022-07-29T17:46:36;27.10;61.20
42867;DHT22;39461;40.948;73.006;2022-07-29T17:49:19;27.10;61.10
42867;DHT22;39461;40.948;73.006;2022-07-29T17:52:16;27.10;61.00
42867;DHT22;39461;40.948;73.006;2022-07-29T17:54:53;27.00;61.00
42867;DHT22;39461;40.948;73.006;2022-07-29T17:57:49;27.00;61.10
42867;DHT22;39461;40.948;73.006;2022-07-29T18:00:32;26.90;61.10